sensor_id;sensor_type;location;lat;lon;timestamp;pressure;altitude;pressure_sealevel;temperature;humidity
16793;BME280;8513;42.662;23.350;2022-10-28T00:02:17;96163.41;;;12.03;56.67
16793;BME280;8513;42.662;23.350;2022-10-28T00:04:42;96151.75;;;12.05;56.67
16793;BME280;8513;42.662;23.350;2022-10-28T00:07:08;96158.91;;;12.14;56.38
16793;BME280;8513;42.662;23.350;2022-10-28T00:09:33;96145.00;;;12.12;56.32
16793;BME280;8513;42.662;23.350;2022-10-28T00:11:59;96160.13;;;12.10;56.55
16793;BME280;8513;42.662;23.350;2022-10-28T00:14:25;96156.22;;;12.05;56.84
16793;BME280;8513;42.662;23.350;2022-10-28T00:16:50;96146.59;;;11.73;57.65
16793;BME280;8513;42.662;23.350;2022-10-28T00:19:16;96158.38;;;11.90;57.42
16793;BME280;8513;42.662;23.350;2022-10-28T00:21:43;96153.38;;;11.87;57.57
16793;BME280;8513;42.662;23.350;2022-10-28T00:24:10;96156.84;;;11.87;57.37
16793;BME280;8513;42.662;23.350;2022-10-28T00:26:38;96156.69;;;11.89;57.56
16793;BME280;8513;42.662;23.350;2022-10-28T00:29:08;96152.97;;;11.91;56.89
16793;BME280;8513;42.662;23.350;2022-10-28T00:31:35;96157.09;;;11.84;57.11
16793;BME280;8513;42.662;23.350;2022-10-28T00:34:02;96161.97;;;11.68;57.42
16793;BME280;8513;42.662;23.350;2022-10-28T00:36:30;96152.97;;;11.70;57.38
16793;BME280;8513;42.662;23.350;2022-10-28T00:38:57;96149.38;;;11.72;57.21
16793;BME280;8513;42.662;23.350;2022-10-28T00:41:31;96142.88;;;11.76;56.95
16793;BME280;8513;42.662;23.350;2022-10-28T00:44:00;96132.91;;;11.79;57.05
16793;BME280;8513;42.662;23.350;2022-10-28T00:49:03;96143.94;;;11.63;57.16
16793;BME280;8513;42.662;23.350;2022-10-28T00:51:32;96145.09;;;11.50;58.02
16793;BME280;8513;42.662;23.350;2022-10-28T00:53:59;96145.56;;;11.55;57.83
16793;BME280;8513;42.662;23.350;2022-10-28T00:56:29;96149.59;;;11.59;57.80
16793;BME280;8513;42.662;23.350;2022-10-28T00:58:59;96151.47;;;11.47;58.29
16793;BME280;8513;42.662;23.350;2022-10-28T01:01:26;96150.22;;;11.51;58.38
16793;BME280;8513;42.662;23.350;2022-10-28T01:03:53;96145.69;;;11.53;57.78
16793;BME280;8513;42.662;23.350;2022-10-28T01:06:20;96145.34;;;11.46;58.02
16793;BME280;8513;42.662;23.350;2022-10-28T01:08:45;96149.03;;;11.34;58.28
16793;BME280;8513;42.662;23.350;2022-10-28T01:11:31;96146.13;;;11.37;58.37
16793;BME280;8513;42.662;23.350;2022-10-28T01:22:33;96147.59;;;11.09;59.39
16793;BME280;8513;42.662;23.350;2022-10-28T01:28:27;96146.28;;;11.15;58.83
16793;BME280;8513;42.662;23.350;2022-10-28T01:39:12;96157.31;;;11.30;58.57
16793;BME280;8513;42.662;23.350;2022-10-28T01:41:50;96157.03;;;11.12;59.04
16793;BME280;8513;42.662;23.350;2022-10-28T01:50:35;96157.53;;;11.06;59.26
16793;BME280;8513;42.662;23.350;2022-10-28T01:53:06;96148.41;;;10.89;59.64
16793;BME280;8513;42.662;23.350;2022-10-28T01:55:45;96155.00;;;10.83;60.10
16793;BME280;8513;42.662;23.350;2022-10-28T01:58:17;96154.75;;;10.86;59.82
16793;BME280;8513;42.662;23.350;2022-10-28T02:00:45;96166.47;;;10.93;59.46
16793;BME280;8513;42.662;23.350;2022-10-28T02:03:10;96159.31;;;10.84;59.80
16793;BME280;8513;42.662;23.350;2022-10-28T02:05:37;96163.38;;;10.77;59.92
16793;BME280;8513;42.662;23.350;2022-10-28T02:13:57;96157.22;;;10.67;60.41
16793;BME280;8513;42.662;23.350;2022-10-28T02:27:32;96159.66;;;10.58;60.16
16793;BME280;8513;42.662;23.350;2022-10-28T02:30:08;96165.16;;;10.44;60.73
16793;BME280;8513;42.662;23.350;2022-10-28T02:32:39;96161.09;;;10.51;60.49
16793;BME280;8513;42.662;23.350;2022-10-28T02:35:10;96162.13;;;10.60;60.26
16793;BME280;8513;42.662;23.350;2022-10-28T02:37:39;96157.50;;;10.52;60.39
16793;BME280;8513;42.662;23.350;2022-10-28T02:40:11;96158.78;;;10.69;59.78
16793;BME280;8513;42.662;23.350;2022-10-28T02:42:46;96159.97;;;10.65;60.03
16793;BME280;8513;42.662;23.350;2022-10-28T02:45:16;96162.75;;;10.52;60.08
16793;BME280;8513;42.662;23.350;2022-10-28T02:47:53;96172.53;;;10.50;60.43
16793;BME280;8513;42.662;23.350;2022-10-28T02:50:24;96170.88;;;10.49;60.32
16793;BME280;8513;42.662;23.350;2022-10-28T02:52:54;96170.66;;;10.41;60.93
16793;BME280;8513;42.662;23.350;2022-10-28T02:55:23;96166.84;;;10.34;61.18
16793;BME280;8513;42.662;23.350;2022-10-28T02:57:50;96163.34;;;10.45;60.98
16793;BME280;8513;42.662;23.350;2022-10-28T03:00:20;96160.03;;;10.20;61.31
16793;BME280;8513;42.662;23.350;2022-10-28T03:02:48;96176.88;;;10.29;61.12
16793;BME280;8513;42.662;23.350;2022-10-28T03:05:14;96169.47;;;10.23;61.11
16793;BME280;8513;42.662;23.350;2022-10-28T03:07:39;96167.41;;;10.26;60.56
16793;BME280;8513;42.662;23.350;2022-10-28T03:10:05;96172.69;;;10.26;60.76
16793;BME280;8513;42.662;23.350;2022-10-28T03:12:31;96157.88;;;10.25;60.70
16793;BME280;8513;42.662;23.350;2022-10-28T03:14:56;96160.75;;;10.11;61.12
16793;BME280;8513;42.662;23.350;2022-10-28T03:17:22;96150.72;;;10.05;61.33
16793;BME280;8513;42.662;23.350;2022-10-28T03:19:47;96160.16;;;10.07;61.33
16793;BME280;8513;42.662;23.350;2022-10-28T03:22:13;96169.50;;;10.00;61.82
16793;BME280;8513;42.662;23.350;2022-10-28T03:24:38;96161.72;;;9.99;61.70
16793;BME280;8513;42.662;23.350;2022-10-28T03:27:04;96160.88;;;9.98;62.05
16793;BME280;8513;42.662;23.350;2022-10-28T03:29:29;96166.16;;;9.76;62.53
16793;BME280;8513;42.662;23.350;2022-10-28T03:31:54;96168.63;;;9.88;61.81
16793;BME280;8513;42.662;23.350;2022-10-28T03:34:20;96164.00;;;10.03;61.56
16793;BME280;8513;42.662;23.350;2022-10-28T03:36:45;96163.63;;;9.97;61.31
16793;BME280;8513;42.662;23.350;2022-10-28T03:39:11;96165.41;;;9.85;62.02
16793;BME280;8513;42.662;23.350;2022-10-28T03:41:36;96169.03;;;9.84;62.18
16793;BME280;8513;42.662;23.350;2022-10-28T03:44:02;96163.88;;;9.82;62.23
16793;BME280;8513;42.662;23.350;2022-10-28T03:46:27;96163.53;;;9.76;62.29
16793;BME280;8513;42.662;23.350;2022-10-28T03:48:52;96175.22;;;9.71;62.80
16793;BME280;8513;42.662;23.350;2022-10-28T03:51:18;96169.03;;;9.84;62.31
16793;BME280;8513;42.662;23.350;2022-10-28T03:53:43;96162.41;;;9.78;62.42
16793;BME280;8513;42.662;23.350;2022-10-28T03:56:10;96177.19;;;9.57;63.21
16793;BME280;8513;42.662;23.350;2022-10-28T03:58:35;96174.13;;;9.74;62.40
16793;BME280;8513;42.662;23.350;2022-10-28T04:01:01;96176.19;;;9.82;62.20
16793;BME280;8513;42.662;23.350;2022-10-28T04:03:26;96168.97;;;9.72;61.94
16793;BME280;8513;42.662;23.350;2022-10-28T04:05:52;96173.53;;;9.82;61.92
16793;BME280;8513;42.662;23.350;2022-10-28T04:08:18;96173.06;;;9.88;61.54
16793;BME280;8513;42.662;23.350;2022-10-28T04:10:44;96178.31;;;9.88;61.69
16793;BME280;8513;42.662;23.350;2022-10-28T04:13:10;96177.09;;;9.81;61.50
16793;BME280;8513;42.662;23.350;2022-10-28T04:15:35;96176.28;;;9.69;62.31
16793;BME280;8513;42.662;23.350;2022-10-28T04:18:01;96176.28;;;9.80;61.88
16793;BME280;8513;42.662;23.350;2022-10-28T04:20:27;96175.06;;;9.62;62.30
16793;BME280;8513;42.662;23.350;2022-10-28T04:22:53;96172.69;;;9.59;62.41
16793;BME280;8513;42.662;23.350;2022-10-28T04:25:23;96176.59;;;9.53;62.82
16793;BME280;8513;42.662;23.350;2022-10-28T04:27:48;96179.81;;;9.57;62.69
16793;BME280;8513;42.662;23.350;2022-10-28T04:30:14;96180.69;;;9.57;62.98
16793;BME280;8513;42.662;23.350;2022-10-28T04:32:41;96186.06;;;9.67;62.63
16793;BME280;8513;42.662;23.350;2022-10-28T04:35:07;96178.31;;;9.77;62.11
16793;BME280;8513;42.662;23.350;2022-10-28T04:37:33;96185.22;;;9.78;61.99
16793;BME280;8513;42.662;23.350;2022-10-28T04:39:58;96174.72;;;9.78;62.13
16793;BME280;8513;42.662;23.350;2022-10-28T04:42:24;96171.84;;;9.69;62.12
16793;BME280;8513;42.662;23.350;2022-10-28T04:44:49;96177.59;;;9.86;61.63
16793;BME280;8513;42.662;23.350;2022-10-28T04:47:16;96163.81;;;9.48;62.51
16793;BME280;8513;42.662;23.350;2022-10-28T04:49:41;96170.44;;;9.65;62.42
16793;BME280;8513;42.662;23.350;2022-10-28T04:52:07;96172.72;;;9.81;61.78
16793;BME280;8513;42.662;23.350;2022-10-28T04:54:32;96171.50;;;9.85;61.81
16793;BME280;8513;42.662;23.350;2022-10-28T04:56:58;96177.84;;;9.83;61.96
16793;BME280;8513;42.662;23.350;2022-10-28T04:59:23;96181.66;;;9.79;61.93
16793;BME280;8513;42.662;23.350;2022-10-28T05:01:49;96179.88;;;9.68;62.31
16793;BME280;8513;42.662;23.350;2022-10-28T05:04:14;96176.50;;;9.66;62.57
16793;BME280;8513;42.662;23.350;2022-10-28T05:06:42;96181.44;;;9.70;62.55
16793;BME280;8513;42.662;23.350;2022-10-28T05:09:18;96179.22;;;9.53;62.87
16793;BME280;8513;42.662;23.350;2022-10-28T05:11:43;96183.06;;;9.60;62.71
16793;BME280;8513;42.662;23.350;2022-10-28T05:14:08;96184.63;;;9.52;63.17
16793;BME280;8513;42.662;23.350;2022-10-28T05:16:34;96192.00;;;9.46;63.24
16793;BME280;8513;42.662;23.350;2022-10-28T05:18:59;96182.50;;;9.21;64.03
16793;BME280;8513;42.662;23.350;2022-10-28T05:21:25;96192.91;;;9.34;64.26
16793;BME280;8513;42.662;23.350;2022-10-28T05:23:50;96195.97;;;9.17;64.77
16793;BME280;8513;42.662;23.350;2022-10-28T05:26:16;96201.22;;;9.17;64.72
16793;BME280;8513;42.662;23.350;2022-10-28T05:28:41;96195.44;;;9.36;64.48
16793;BME280;8513;42.662;23.350;2022-10-28T05:31:08;96193.69;;;9.59;63.78
16793;BME280;8513;42.662;23.350;2022-10-28T05:33:33;96194.91;;;9.77;62.63
16793;BME280;8513;42.662;23.350;2022-10-28T05:35:59;96199.69;;;9.83;62.13
16793;BME280;8513;42.662;23.350;2022-10-28T05:38:25;96205.19;;;9.80;62.25
16793;BME280;8513;42.662;23.350;2022-10-28T05:40:50;96203.28;;;9.82;62.47
16793;BME280;8513;42.662;23.350;2022-10-28T05:43:16;96202.09;;;9.86;62.58
16793;BME280;8513;42.662;23.350;2022-10-28T05:45:41;96209.34;;;9.83;62.77
16793;BME280;8513;42.662;23.350;2022-10-28T05:48:07;96206.47;;;9.75;63.18
16793;BME280;8513;42.662;23.350;2022-10-28T05:50:32;96215.34;;;9.74;63.24
16793;BME280;8513;42.662;23.350;2022-10-28T05:52:58;96216.53;;;9.92;62.72
16793;BME280;8513;42.662;23.350;2022-10-28T05:55:25;96211.97;;;9.83;63.10
16793;BME280;8513;42.662;23.350;2022-10-28T05:57:52;96223.88;;;9.53;63.76
16793;BME280;8513;42.662;23.350;2022-10-28T06:00:21;96217.38;;;9.81;63.50
16793;BME280;8513;42.662;23.350;2022-10-28T06:02:47;96228.97;;;10.01;62.79
16793;BME280;8513;42.662;23.350;2022-10-28T06:05:12;96225.84;;;9.96;62.72
16793;BME280;8513;42.662;23.350;2022-10-28T06:07:39;96225.84;;;9.96;63.05
16793;BME280;8513;42.662;23.350;2022-10-28T06:10:06;96231.72;;;10.11;62.59
16793;BME280;8513;42.662;23.350;2022-10-28T06:12:32;96233.88;;;9.94;62.88
16793;BME280;8513;42.662;23.350;2022-10-28T06:14:58;96239.97;;;10.06;63.07
16793;BME280;8513;42.662;23.350;2022-10-28T06:17:23;96238.63;;;10.23;62.74
16793;BME280;8513;42.662;23.350;2022-10-28T06:19:49;96240.91;;;10.50;61.40
16793;BME280;8513;42.662;23.350;2022-10-28T06:22:14;96247.38;;;10.57;60.92
16793;BME280;8513;42.662;23.350;2022-10-28T06:24:40;96246.06;;;10.63;60.79
16793;BME280;8513;42.662;23.350;2022-10-28T06:27:05;96241.03;;;10.60;60.72
16793;BME280;8513;42.662;23.350;2022-10-28T06:29:32;96248.31;;;10.68;60.64
16793;BME280;8513;42.662;23.350;2022-10-28T06:31:58;96244.47;;;10.72;60.25
16793;BME280;8513;42.662;23.350;2022-10-28T06:34:23;96246.28;;;10.82;59.88
16793;BME280;8513;42.662;23.350;2022-10-28T06:36:49;96248.03;;;10.82;59.21
16793;BME280;8513;42.662;23.350;2022-10-28T06:39:15;96252.19;;;10.96;58.87
16793;BME280;8513;42.662;23.350;2022-10-28T06:41:40;96248.63;;;10.97;58.56
16793;BME280;8513;42.662;23.350;2022-10-28T06:44:06;96241.88;;;11.15;57.90
16793;BME280;8513;42.662;23.350;2022-10-28T06:46:31;96238.84;;;11.20;57.79
16793;BME280;8513;42.662;23.350;2022-10-28T06:48:57;96244.53;;;11.36;57.49
16793;BME280;8513;42.662;23.350;2022-10-28T06:51:23;96246.78;;;11.41;57.13
16793;BME280;8513;42.662;23.350;2022-10-28T06:53:49;96243.84;;;11.55;56.70
16793;BME280;8513;42.662;23.350;2022-10-28T06:56:15;96247.00;;;11.70;56.58
16793;BME280;8513;42.662;23.350;2022-10-28T06:58:41;96238.69;;;11.54;56.87
16793;BME280;8513;42.662;23.350;2022-10-28T07:01:07;96245.78;;;11.74;56.97
16793;BME280;8513;42.662;23.350;2022-10-28T07:03:32;96235.25;;;11.74;56.60
16793;BME280;8513;42.662;23.350;2022-10-28T07:05:58;96245.13;;;11.82;56.21
16793;BME280;8513;42.662;23.350;2022-10-28T07:08:26;96244.13;;;11.94;55.96
16793;BME280;8513;42.662;23.350;2022-10-28T07:10:56;96235.16;;;11.85;55.97
16793;BME280;8513;42.662;23.350;2022-10-28T07:13:22;96237.50;;;12.00;55.57
16793;BME280;8513;42.662;23.350;2022-10-28T07:15:57;96247.66;;;12.04;55.44
16793;BME280;8513;42.662;23.350;2022-10-28T07:18:24;96246.47;;;12.18;55.10
16793;BME280;8513;42.662;23.350;2022-10-28T07:20:50;96251.84;;;12.38;54.35
16793;BME280;8513;42.662;23.350;2022-10-28T07:23:15;96242.84;;;12.50;54.27
16793;BME280;8513;42.662;23.350;2022-10-28T07:25:41;96242.25;;;12.36;54.72
16793;BME280;8513;42.662;23.350;2022-10-28T07:28:07;96248.44;;;12.26;55.28
16793;BME280;8513;42.662;23.350;2022-10-28T07:30:33;96251.91;;;12.26;54.95
16793;BME280;8513;42.662;23.350;2022-10-28T07:32:58;96246.81;;;12.34;54.68
16793;BME280;8513;42.662;23.350;2022-10-28T07:35:29;96248.66;;;12.13;55.33
16793;BME280;8513;42.662;23.350;2022-10-28T07:37:55;96239.38;;;12.19;55.01
16793;BME280;8513;42.662;23.350;2022-10-28T07:40:22;96242.81;;;12.40;54.70
16793;BME280;8513;42.662;23.350;2022-10-28T07:42:47;96237.13;;;12.45;54.33
16793;BME280;8513;42.662;23.350;2022-10-28T07:45:13;96234.41;;;12.56;54.13
16793;BME280;8513;42.662;23.350;2022-10-28T07:47:39;96245.44;;;12.40;54.59
16793;BME280;8513;42.662;23.350;2022-10-28T07:50:06;96236.09;;;12.57;54.34
16793;BME280;8513;42.662;23.350;2022-10-28T07:52:33;96239.31;;;12.70;54.01
16793;BME280;8513;42.662;23.350;2022-10-28T07:54:59;96239.16;;;12.62;53.87
16793;BME280;8513;42.662;23.350;2022-10-28T07:57:25;96241.13;;;12.79;53.31
16793;BME280;8513;42.662;23.350;2022-10-28T07:59:50;96234.78;;;12.92;53.22
16793;BME280;8513;42.662;23.350;2022-10-28T08:02:18;96235.06;;;13.08;52.64
16793;BME280;8513;42.662;23.350;2022-10-28T08:04:44;96236.75;;;12.99;52.83
16793;BME280;8513;42.662;23.350;2022-10-28T08:07:10;96240.88;;;12.92;52.91
16793;BME280;8513;42.662;23.350;2022-10-28T08:09:36;96232.84;;;13.03;52.58
16793;BME280;8513;42.662;23.350;2022-10-28T08:12:02;96237.16;;;13.14;52.71
16793;BME280;8513;42.662;23.350;2022-10-28T08:14:27;96235.50;;;13.13;52.21
16793;BME280;8513;42.662;23.350;2022-10-28T08:16:53;96242.16;;;13.17;52.11
16793;BME280;8513;42.662;23.350;2022-10-28T08:19:18;96233.84;;;13.22;52.31
16793;BME280;8513;42.662;23.350;2022-10-28T08:21:43;96235.69;;;13.31;51.91
16793;BME280;8513;42.662;23.350;2022-10-28T08:24:09;96240.13;;;13.40;51.87
16793;BME280;8513;42.662;23.350;2022-10-28T08:26:34;96237.63;;;13.58;51.61
16793;BME280;8513;42.662;23.350;2022-10-28T08:29:00;96234.00;;;13.59;51.47
16793;BME280;8513;42.662;23.350;2022-10-28T08:31:26;96243.16;;;13.65;51.45
16793;BME280;8513;42.662;23.350;2022-10-28T08:33:51;96239.56;;;13.66;51.34
16793;BME280;8513;42.662;23.350;2022-10-28T08:36:17;96238.03;;;13.63;51.30
16793;BME280;8513;42.662;23.350;2022-10-28T08:38:43;96239.78;;;13.92;50.97
16793;BME280;8513;42.662;23.350;2022-10-28T08:46:57;96238.31;;;14.27;50.07
16793;BME280;8513;42.662;23.350;2022-10-28T08:49:26;96233.41;;;14.32;49.73
16793;BME280;8513;42.662;23.350;2022-10-28T08:52:34;96238.50;;;14.43;49.49
16793;BME280;8513;42.662;23.350;2022-10-28T08:55:09;96227.66;;;14.46;48.99
16793;BME280;8513;42.662;23.350;2022-10-28T08:57:47;96224.44;;;14.52;48.90
16793;BME280;8513;42.662;23.350;2022-10-28T09:03:06;96225.25;;;14.81;48.07
16793;BME280;8513;42.662;23.350;2022-10-28T09:05:39;96233.31;;;14.89;48.08
16793;BME280;8513;42.662;23.350;2022-10-28T09:08:12;96219.22;;;14.88;48.49
16793;BME280;8513;42.662;23.350;2022-10-28T09:19:47;96206.94;;;15.51;47.07
16793;BME280;8513;42.662;23.350;2022-10-28T09:33:34;96199.81;;;15.95;46.07
16793;BME280;8513;42.662;23.350;2022-10-28T09:36:04;96188.66;;;16.09;45.17
16793;BME280;8513;42.662;23.350;2022-10-28T09:38:33;96182.97;;;16.04;45.42
16793;BME280;8513;42.662;23.350;2022-10-28T09:43:37;96180.47;;;16.03;45.53
16793;BME280;8513;42.662;23.350;2022-10-28T09:46:11;96162.88;;;16.28;45.12
16793;BME280;8513;42.662;23.350;2022-10-28T09:48:45;96162.28;;;16.50;45.17
16793;BME280;8513;42.662;23.350;2022-10-28T09:54:10;96158.44;;;16.45;44.21
16793;BME280;8513;42.662;23.350;2022-10-28T09:56:36;96152.72;;;16.66;44.24
16793;BME280;8513;42.662;23.350;2022-10-28T09:59:02;96145.50;;;16.92;43.84
16793;BME280;8513;42.662;23.350;2022-10-28T10:01:41;96147.63;;;16.89;43.51
16793;BME280;8513;42.662;23.350;2022-10-28T10:04:18;96144.19;;;17.05;43.33
16793;BME280;8513;42.662;23.350;2022-10-28T10:06:45;96144.72;;;17.33;42.60
16793;BME280;8513;42.662;23.350;2022-10-28T10:09:22;96144.03;;;17.55;42.53
16793;BME280;8513;42.662;23.350;2022-10-28T10:11:51;96129.88;;;17.71;42.41
16793;BME280;8513;42.662;23.350;2022-10-28T10:14:23;96130.38;;;17.91;41.92
16793;BME280;8513;42.662;23.350;2022-10-28T10:17:05;96141.16;;;17.98;41.32
16793;BME280;8513;42.662;23.350;2022-10-28T10:19:58;96135.50;;;18.01;41.44
16793;BME280;8513;42.662;23.350;2022-10-28T10:22:47;96129.94;;;18.27;41.86
16793;BME280;8513;42.662;23.350;2022-10-28T10:27:55;96124.50;;;18.51;40.52
16793;BME280;8513;42.662;23.350;2022-10-28T10:30:36;96108.72;;;18.50;39.91
16793;BME280;8513;42.662;23.350;2022-10-28T10:33:03;96110.72;;;18.48;39.94
16793;BME280;8513;42.662;23.350;2022-10-28T10:35:31;96108.78;;;18.34;40.53
16793;BME280;8513;42.662;23.350;2022-10-28T10:38:00;96114.81;;;18.59;39.65
16793;BME280;8513;42.662;23.350;2022-10-28T10:40:34;96108.66;;;18.89;39.93
16793;BME280;8513;42.662;23.350;2022-10-28T10:43:32;96102.63;;;18.95;38.60
16793;BME280;8513;42.662;23.350;2022-10-28T10:48:24;96109.78;;;19.18;37.47
16793;BME280;8513;42.662;23.350;2022-10-28T10:50:51;96108.66;;;19.12;37.40
16793;BME280;8513;42.662;23.350;2022-10-28T10:53:29;96096.84;;;19.53;36.83
16793;BME280;8513;42.662;23.350;2022-10-28T10:58:30;96092.97;;;19.55;36.17
16793;BME280;8513;42.662;23.350;2022-10-28T11:00:58;96093.22;;;19.69;36.33
16793;BME280;8513;42.662;23.350;2022-10-28T11:05:55;96093.31;;;19.75;35.34
16793;BME280;8513;42.662;23.350;2022-10-28T11:08:30;96085.94;;;19.77;34.70
16793;BME280;8513;42.662;23.350;2022-10-28T11:11:07;96075.28;;;19.92;33.86
16793;BME280;8513;42.662;23.350;2022-10-28T11:13:34;96076.28;;;19.91;34.09
16793;BME280;8513;42.662;23.350;2022-10-28T11:16:18;96078.22;;;20.12;34.16
16793;BME280;8513;42.662;23.350;2022-10-28T11:18:46;96072.88;;;20.12;34.10
16793;BME280;8513;42.662;23.350;2022-10-28T11:26:38;96071.72;;;20.51;33.85
16793;BME280;8513;42.662;23.350;2022-10-28T11:29:08;96060.84;;;20.53;31.03
16793;BME280;8513;42.662;23.350;2022-10-28T11:31:48;96054.13;;;20.93;30.53
16793;BME280;8513;42.662;23.350;2022-10-28T11:43:49;96053.13;;;37.93;11.28
16793;BME280;8513;42.662;23.350;2022-10-28T11:49:32;96060.81;;;41.31;8.95
16793;BME280;8513;42.662;23.350;2022-10-28T11:58:06;96049.03;;;43.27;7.35
16793;BME280;8513;42.662;23.350;2022-10-28T12:00:42;96047.22;;;44.89;6.58
16793;BME280;8513;42.662;23.350;2022-10-28T12:03:33;96039.50;;;44.12;6.92
16793;BME280;8513;42.662;23.350;2022-10-28T12:08:41;96041.25;;;43.83;6.80
16793;BME280;8513;42.662;23.350;2022-10-28T12:17:32;96030.06;;;43.59;6.32
16793;BME280;8513;42.662;23.350;2022-10-28T12:20:08;96033.88;;;45.31;5.33
16793;BME280;8513;42.662;23.350;2022-10-28T12:22:45;96027.84;;;41.08;7.22
16793;BME280;8513;42.662;23.350;2022-10-28T12:25:16;96021.69;;;43.68;6.44
16793;BME280;8513;42.662;23.350;2022-10-28T12:27:44;96030.16;;;44.29;5.97
16793;BME280;8513;42.662;23.350;2022-10-28T12:30:41;96021.66;;;41.98;7.72
16793;BME280;8513;42.662;23.350;2022-10-28T12:33:11;96031.16;;;44.95;5.44
16793;BME280;8513;42.662;23.350;2022-10-28T12:35:47;96020.56;;;41.64;7.18
16793;BME280;8513;42.662;23.350;2022-10-28T12:40:48;96013.19;;;43.85;6.37
16793;BME280;8513;42.662;23.350;2022-10-28T12:43:37;96013.72;;;43.99;6.02
16793;BME280;8513;42.662;23.350;2022-10-28T12:46:04;96006.06;;;42.02;7.06
16793;BME280;8513;42.662;23.350;2022-10-28T12:48:43;96008.09;;;43.75;6.32
16793;BME280;8513;42.662;23.350;2022-10-28T12:51:28;95998.22;;;40.65;7.60
16793;BME280;8513;42.662;23.350;2022-10-28T12:56:41;96006.78;;;39.84;8.21
16793;BME280;8513;42.662;23.350;2022-10-28T12:59:22;95996.22;;;40.57;7.94
16793;BME280;8513;42.662;23.350;2022-10-28T13:01:52;96001.44;;;43.13;6.29
16793;BME280;8513;42.662;23.350;2022-10-28T13:04:18;95997.66;;;43.38;6.33
16793;BME280;8513;42.662;23.350;2022-10-28T13:09:51;95997.47;;;40.91;7.57
16793;BME280;8513;42.662;23.350;2022-10-28T13:15:33;95994.88;;;42.97;6.25
16793;BME280;8513;42.662;23.350;2022-10-28T13:18:30;95993.88;;;42.80;6.70
16793;BME280;8513;42.662;23.350;2022-10-28T13:23:56;96001.13;;;42.17;7.30
16793;BME280;8513;42.662;23.350;2022-10-28T13:26:27;95995.28;;;42.09;7.37
16793;BME280;8513;42.662;23.350;2022-10-28T13:28:57;95993.13;;;41.51;7.51
16793;BME280;8513;42.662;23.350;2022-10-28T13:31:44;95990.63;;;42.78;6.80
16793;BME280;8513;42.662;23.350;2022-10-28T13:34:14;95989.53;;;41.33;7.71
16793;BME280;8513;42.662;23.350;2022-10-28T13:36:50;95985.75;;;35.14;11.72
16793;BME280;8513;42.662;23.350;2022-10-28T13:44:56;95971.47;;;28.43;18.53
16793;BME280;8513;42.662;23.350;2022-10-28T13:52:41;95969.56;;;26.18;20.89
16793;BME280;8513;42.662;23.350;2022-10-28T13:57:41;95972.03;;;25.21;21.72
16793;BME280;8513;42.662;23.350;2022-10-28T14:02:47;95971.94;;;24.71;23.37
16793;BME280;8513;42.662;23.350;2022-10-28T14:05:15;95966.59;;;24.64;23.41
16793;BME280;8513;42.662;23.350;2022-10-28T14:07:56;95965.97;;;24.24;23.83
16793;BME280;8513;42.662;23.350;2022-10-28T14:10:25;95963.28;;;23.52;24.79
16793;BME280;8513;42.662;23.350;2022-10-28T14:15:38;95966.69;;;23.99;24.33
16793;BME280;8513;42.662;23.350;2022-10-28T14:18:25;95974.00;;;28.90;18.56
16793;BME280;8513;42.662;23.350;2022-10-28T14:50:13;95958.88;;;23.91;24.47
16793;BME280;8513;42.662;23.350;2022-10-28T14:52:41;95957.09;;;23.71;25.02
16793;BME280;8513;42.662;23.350;2022-10-28T14:55:25;95963.13;;;23.27;25.69
16793;BME280;8513;42.662;23.350;2022-10-28T14:57:51;95951.78;;;23.18;25.93
16793;BME280;8513;42.662;23.350;2022-10-28T15:00:22;95956.97;;;22.18;27.47
16793;BME280;8513;42.662;23.350;2022-10-28T15:02:50;95956.53;;;22.15;28.04
16793;BME280;8513;42.662;23.350;2022-10-28T15:05:21;95954.56;;;22.30;27.53
16793;BME280;8513;42.662;23.350;2022-10-28T15:07:49;95950.19;;;21.74;28.17
16793;BME280;8513;42.662;23.350;2022-10-28T15:10:24;95952.47;;;21.43;29.33
16793;BME280;8513;42.662;23.350;2022-10-28T15:12:56;95959.50;;;20.94;30.10
16793;BME280;8513;42.662;23.350;2022-10-28T15:15:32;95950.22;;;21.18;29.63
16793;BME280;8513;42.662;23.350;2022-10-28T15:18:01;95959.91;;;20.91;30.19
16793;BME280;8513;42.662;23.350;2022-10-28T15:20:37;95957.00;;;20.64;30.92
16793;BME280;8513;42.662;23.350;2022-10-28T15:23:17;95961.53;;;20.49;31.13
16793;BME280;8513;42.662;23.350;2022-10-28T15:25:42;95957.78;;;20.43;30.95
16793;BME280;8513;42.662;23.350;2022-10-28T15:28:12;95951.53;;;20.36;31.41
16793;BME280;8513;42.662;23.350;2022-10-28T15:30:40;95959.09;;;19.96;32.45
16793;BME280;8513;42.662;23.350;2022-10-28T15:33:29;95961.59;;;19.83;32.63
16793;BME280;8513;42.662;23.350;2022-10-28T15:36:06;95961.25;;;19.71;33.35
16793;BME280;8513;42.662;23.350;2022-10-28T15:38:37;95960.78;;;19.38;33.84
16793;BME280;8513;42.662;23.350;2022-10-28T15:43:55;95970.28;;;19.03;34.75
16793;BME280;8513;42.662;23.350;2022-10-28T15:46:22;95957.81;;;19.18;34.81
16793;BME280;8513;42.662;23.350;2022-10-28T15:48:52;95975.38;;;19.12;34.91
16793;BME280;8513;42.662;23.350;2022-10-28T15:51:18;95971.81;;;18.82;35.68
16793;BME280;8513;42.662;23.350;2022-10-28T15:53:50;95982.59;;;18.66;36.03
16793;BME280;8513;42.662;23.350;2022-10-28T15:56:23;95992.88;;;18.46;36.68
16793;BME280;8513;42.662;23.350;2022-10-28T16:03:52;95992.09;;;18.37;37.18
16793;BME280;8513;42.662;23.350;2022-10-28T16:08:46;95998.78;;;18.33;37.50
16793;BME280;8513;42.662;23.350;2022-10-28T16:11:17;95999.94;;;18.07;38.09
16793;BME280;8513;42.662;23.350;2022-10-28T16:13:48;95996.28;;;18.00;38.16
16793;BME280;8513;42.662;23.350;2022-10-28T16:16:34;95995.81;;;17.97;38.22
16793;BME280;8513;42.662;23.350;2022-10-28T16:19:06;96002.88;;;17.73;38.51
16793;BME280;8513;42.662;23.350;2022-10-28T16:21:35;96002.00;;;17.89;37.78
16793;BME280;8513;42.662;23.350;2022-10-28T16:24:02;96002.88;;;17.81;37.99
16793;BME280;8513;42.662;23.350;2022-10-28T16:26:30;96007.00;;;17.76;37.71
16793;BME280;8513;42.662;23.350;2022-10-28T16:28:55;96008.00;;;17.75;37.49
16793;BME280;8513;42.662;23.350;2022-10-28T16:31:23;96010.69;;;17.67;37.47